createdAt,value
2017-12-04T00:00:18.562Z,5.88
2017-12-04T00:10:18.605Z,5.77
2017-12-04T00:20:18.605Z,5.78
2017-12-04T00:30:18.651Z,5.96
2017-12-04T00:40:18.591Z,5.98
2017-12-04T00:50:18.675Z,5.92
2017-12-04T01:00:18.538Z,5.95
2017-12-04T01:10:18.653Z,6.11
2017-12-04T01:20:18.683Z,6.06
2017-12-04T01:30:18.562Z,5.91
2017-12-04T01:40:18.654Z,6.04
2017-12-04T01:50:18.610Z,6.13
2017-12-04T02:00:18.654Z,6.14
2017-12-04T02:10:18.671Z,6.01
2017-12-04T02:20:18.691Z,6.07
2017-12-04T02:30:18.659Z,6.07
2017-12-04T02:40:18.693Z,6.14
2017-12-04T02:50:18.663Z,6.22
2017-12-04T03:00:18.723Z,6.3
2017-12-04T03:10:18.696Z,6.38
2017-12-04T03:20:18.760Z,6.3
2017-12-04T03:30:18.776Z,6.44
2017-12-04T03:40:18.673Z,6.36
2017-12-04T03:50:18.724Z,6.35
2017-12-04T04:00:18.712Z,6.44
2017-12-04T04:10:18.753Z,6.51
2017-12-04T04:20:18.731Z,6.66
2017-12-04T04:30:18.804Z,6.65
2017-12-04T04:40:18.754Z,6.68
2017-12-04T04:50:18.812Z,6.59
2017-12-04T05:00:18.781Z,6.58
2017-12-04T05:10:18.816Z,6.65
2017-12-04T05:20:18.790Z,6.71
2017-12-04T05:30:18.866Z,6.81
2017-12-04T05:40:18.810Z,6.86
2017-12-04T05:50:18.755Z,6.79
2017-12-04T06:00:18.844Z,6.95
2017-12-04T06:10:18.804Z,6.86
2017-12-04T06:20:18.866Z,6.87
2017-12-04T06:30:18.829Z,6.97
2017-12-04T06:40:18.898Z,6.9
2017-12-04T06:50:18.875Z,6.89
2017-12-04T07:00:18.919Z,6.99
2017-12-04T07:10:18.856Z,7.08
2017-12-04T07:20:18.935Z,7.08
2017-12-04T07:30:18.889Z,7.09
2017-12-04T07:40:18.957Z,7.12
2017-12-04T07:50:18.898Z,7.19
2017-12-04T08:00:18.859Z,7.26
2017-12-04T08:10:18.931Z,7.35
2017-12-04T08:20:18.872Z,7.31
2017-12-04T08:30:18.990Z,7.4
2017-12-04T08:40:18.941Z,7.45
2017-12-04T08:50:19.038Z,7.62
2017-12-04T09:00:18.960Z,7.74
2017-12-04T09:10:18.974Z,7.78
2017-12-04T09:20:18.975Z,7.77
2017-12-04T09:30:18.937Z,7.77
2017-12-04T09:40:18.967Z,7.71
2017-12-04T09:50:18.978Z,7.84
2017-12-04T10:00:18.970Z,7.92
2017-12-04T10:10:19.302Z,8.08
2017-12-04T10:20:19.003Z,8.08
2017-12-04T10:30:19.021Z,8.14
2017-12-04T10:40:19.006Z,8.21
2017-12-04T10:50:19.016Z,8.02
2017-12-04T11:00:19.071Z,8.12
2017-12-04T11:10:19.045Z,8.2
2017-12-04T11:20:19.052Z,8.42
2017-12-04T11:30:19.219Z,8.55
2017-12-04T11:40:19.155Z,8.66
2017-12-04T11:50:19.092Z,8.66
2017-12-04T12:00:19.060Z,8.36
2017-12-04T12:10:19.107Z,8.32
2017-12-04T12:20:19.197Z,8.21
2017-12-04T12:30:19.148Z,8.32
2017-12-04T12:40:19.154Z,8.83
2017-12-04T12:50:19.122Z,8.94
2017-12-04T13:00:19.152Z,8.84
2017-12-04T13:10:19.126Z,8.87
2017-12-04T13:20:19.188Z,8.84
2017-12-04T13:30:19.177Z,8.93
2017-12-04T13:40:19.182Z,8.94
2017-12-04T13:50:19.229Z,8.94
2017-12-04T14:00:19.226Z,8.45
2017-12-04T14:10:19.307Z,8.26
2017-12-04T14:20:19.235Z,8.18
2017-12-04T14:30:19.214Z,8.08
2017-12-04T14:40:19.346Z,8.1
2017-12-04T14:50:19.267Z,8.26
2017-12-04T15:00:19.382Z,8.2
2017-12-04T15:10:19.266Z,8.08
2017-12-04T15:20:19.407Z,8.2
2017-12-04T15:30:19.349Z,8.03
2017-12-04T15:40:20.005Z,7.93
2017-12-04T15:50:19.365Z,7.96
2017-12-04T16:00:19.280Z,8.1
2017-12-04T16:10:19.403Z,7.81
2017-12-04T16:20:19.362Z,7.52
2017-12-04T16:30:19.376Z,7.53
2017-12-04T16:40:19.357Z,7.27
2017-12-04T16:50:19.390Z,7.44
2017-12-04T17:00:19.409Z,7.69
2017-12-04T17:10:19.411Z,7.87
2017-12-04T17:20:19.379Z,8
2017-12-04T17:30:19.461Z,7.96
2017-12-04T17:40:19.451Z,7.89
2017-12-04T17:50:19.440Z,7.9
2017-12-04T18:00:19.414Z,7.92
2017-12-04T18:10:19.389Z,8
2017-12-04T18:20:19.447Z,8
2017-12-04T18:30:19.398Z,8.11
2017-12-04T18:40:19.506Z,8.15
2017-12-04T18:50:19.433Z,8.33
2017-12-04T19:00:19.473Z,8.21
2017-12-04T19:10:19.575Z,8.25
2017-12-04T19:20:19.411Z,8.03
2017-12-04T19:30:19.897Z,8
2017-12-04T19:40:20.157Z,7.94
2017-12-04T19:50:19.482Z,7.93
2017-12-04T20:00:19.637Z,7.97
2017-12-04T20:10:19.852Z,7.97
2017-12-04T20:20:20.470Z,8.1
2017-12-04T20:30:20.398Z,8.12
2017-12-04T20:40:19.698Z,8.1
2017-12-04T20:50:20.003Z,8.14
2017-12-04T21:00:19.826Z,7.9
2017-12-04T21:10:20.188Z,7.81
2017-12-04T21:20:19.919Z,7.71
2017-12-04T21:30:20.129Z,7.78
2017-12-04T21:40:19.726Z,8.03
2017-12-04T21:50:19.705Z,7.93
2017-12-04T22:00:19.663Z,7.84
2017-12-04T22:10:20.226Z,8
2017-12-04T22:20:20.474Z,8.04
2017-12-04T22:30:19.795Z,7.99
2017-12-04T22:40:19.799Z,7.97
2017-12-04T22:50:19.729Z,7.97
2017-12-04T23:00:19.656Z,7.99
2017-12-04T23:10:19.641Z,7.84
2017-12-04T23:20:19.726Z,7.72
2017-12-04T23:30:19.697Z,7.6
2017-12-04T23:40:19.665Z,7.62
2017-12-04T23:50:19.700Z,7.53
